Time;durP1;ratioP1;P1;durP2;ratioP2;P2;SDS_P1;SDS_P2;PMS_P1;PMS_P2;Temp;Humidity;BMP_temperature;BMP_pressure;BME280_temperature;BME280_humidity;BME280_pressure;Samples;Min_cycle;Max_cycle;Signal;HPM_P1;HPM_P2
2022/01/23 00:04:35;;;;;;;22.57;14.43;;;6.60;99.90;;;;;;5072447;28;20772;-56
2022/01/23 00:07:05;;;;;;;22.80;14.80;;;6.60;99.90;;;;;;5068897;28;20288;-58
2022/01/23 00:09:32;;;;;;;26.80;14.63;;;6.50;99.90;;;;;;5090469;28;20277;-59
2022/01/23 00:12:03;;;;;;;21.17;14.27;;;6.20;99.90;;;;;;5090083;28;20295;-58
2022/01/23 00:17:20;;;;;;;23.87;15.07;;;6.00;99.90;;;;;;5085867;28;20202;-58
2022/01/23 00:19:58;;;;;;;25.83;14.63;;;6.10;99.90;;;;;;5093396;28;20196;-58
2022/01/23 00:22:35;;;;;;;27.37;14.87;;;6.00;99.90;;;;;;5094125;28;20248;-58
2022/01/23 00:30:39;;;;;;;23.13;13.60;;;6.40;99.90;;;;;;5088585;28;20242;-59
2022/01/23 00:33:06;;;;;;;23.47;14.10;;;6.30;99.90;;;;;;5090152;28;20284;-59
2022/01/23 00:35:35;;;;;;;23.23;14.87;;;6.30;99.90;;;;;;5090239;28;20288;-59
2022/01/23 00:38:04;;;;;;;23.67;14.37;;;6.10;99.90;;;;;;5092590;28;20218;-59
2022/01/23 00:40:33;;;;;;;23.37;14.53;;;6.10;99.90;;;;;;5089775;28;20196;-59
2022/01/23 00:43:01;;;;;;;23.80;15.07;;;6.10;99.90;;;;;;5092552;28;20210;-58
2022/01/23 00:45:41;;;;;;;23.47;13.97;;;6.20;99.90;;;;;;5086689;28;20282;-57
2022/01/23 00:48:09;;;;;;;27.53;14.47;;;6.10;99.90;;;;;;5092110;28;20204;-58
2022/01/23 00:50:40;;;;;;;26.07;15.27;;;6.30;99.90;;;;;;5088312;28;20581;-59
2022/01/23 00:53:10;;;;;;;26.87;15.30;;;6.30;99.90;;;;;;5075728;28;20227;-59
2022/01/23 00:55:43;;;;;;;27.00;14.83;;;6.30;99.90;;;;;;5061320;28;20253;-58
2022/01/23 00:58:10;;;;;;;23.80;13.97;;;6.30;99.90;;;;;;5080527;28;20290;-57
2022/01/23 01:00:39;;;;;;;20.03;13.57;;;6.50;99.90;;;;;;5083185;28;20281;-56
2022/01/23 01:03:07;;;;;;;21.53;13.47;;;6.60;99.90;;;;;;5083904;28;20244;-57
2022/01/23 01:05:34;;;;;;;21.70;13.00;;;6.50;99.90;;;;;;5080361;28;20566;-58
2022/01/23 01:08:04;;;;;;;20.67;12.97;;;6.50;99.90;;;;;;5084469;28;20293;-58
2022/01/23 01:11:10;;;;;;;24.70;14.00;;;6.50;99.90;;;;;;5076314;28;20293;-58
2022/01/23 01:13:21;;;;;;;20.10;12.40;;;6.60;99.90;;;;;;5075855;28;20237;-58
2022/01/23 01:36:16;;;;;;;18.97;12.13;;;6.70;99.90;;;;;;5058002;28;20671;-59
2022/01/23 01:38:24;;;;;;;19.80;12.33;;;6.70;99.90;;;;;;5075375;28;20252;-59
2022/01/23 01:40:52;;;;;;;18.77;12.03;;;6.50;99.90;;;;;;5083873;28;20662;-58
2022/01/23 01:43:18;;;;;;;17.50;11.57;;;6.60;99.90;;;;;;5060826;28;20789;-58
2022/01/23 01:45:46;;;;;;;18.03;11.73;;;6.70;99.90;;;;;;5084541;28;20195;-59
2022/01/23 01:48:15;;;;;;;16.87;12.03;;;6.80;99.90;;;;;;5085368;28;20302;-59
2022/01/23 01:50:46;;;;;;;19.50;11.57;;;6.70;99.90;;;;;;5067386;28;20295;-59
2022/01/23 01:53:13;;;;;;;16.63;11.27;;;6.40;99.90;;;;;;5082310;28;20754;-59
2022/01/23 01:55:45;;;;;;;21.47;12.63;;;6.30;99.90;;;;;;5069238;28;20763;-58
2022/01/23 01:58:34;;;;;;;18.83;12.37;;;6.40;99.90;;;;;;5072158;28;20313;-58
2022/01/23 02:01:12;;;;;;;20.27;12.90;;;6.50;99.90;;;;;;5087954;28;20198;-58
2022/01/23 02:09:16;;;;;;;20.37;13.03;;;6.40;99.90;;;;;;5085277;28;20874;-58
2022/01/23 02:14:29;;;;;;;19.90;13.10;;;6.70;99.90;;;;;;5086129;28;20688;-58
2022/01/23 02:55:14;;;;;;;17.73;10.90;;;6.70;99.90;;;;;;5086281;28;20206;-58
2022/01/23 03:00:13;;;;;;;21.07;11.90;;;6.60;99.90;;;;;;5088896;28;20221;-59
2022/01/23 03:03:05;;;;;;;20.30;10.90;;;6.50;99.90;;;;;;5070401;28;20222;-59
2022/01/23 03:10:34;;;;;;;19.77;12.27;;;6.40;99.90;;;;;;5086363;28;20312;-58
2022/01/23 03:24:12;;;;;;;24.23;11.80;;;6.40;99.90;;;;;;5084053;28;20675;-58
2022/01/23 03:27:27;;;;;;;18.27;10.77;;;6.60;99.90;;;;;;5076421;28;20198;-58
2022/01/23 03:32:47;;;;;;;18.27;10.97;;;6.70;99.90;;;;;;5072902;28;20238;-55
2022/01/23 03:35:15;;;;;;;15.47;10.40;;;6.70;99.90;;;;;;5068594;28;20249;-59
2022/01/23 03:37:42;;;;;;;18.10;10.50;;;6.60;99.90;;;;;;5084140;28;20675;-59
2022/01/23 03:40:10;;;;;;;17.37;10.93;;;6.70;99.90;;;;;;5083739;28;20691;-58
2022/01/23 03:42:40;;;;;;;19.87;10.80;;;6.50;99.90;;;;;;5084983;28;20771;-58
2022/01/23 03:47:42;;;;;;;20.17;10.50;;;6.60;99.90;;;;;;5085226;28;20238;-58
2022/01/23 03:50:11;;;;;;;19.03;11.63;;;6.60;99.90;;;;;;5076608;28;20251;-58
2022/01/23 03:55:24;;;;;;;15.40;10.83;;;6.70;99.90;;;;;;5078872;28;20206;-60
2022/01/23 03:57:51;;;;;;;17.43;11.07;;;6.70;99.90;;;;;;5081336;28;20695;-59
2022/01/23 04:00:18;;;;;;;17.30;10.37;;;6.80;99.90;;;;;;5080121;28;20215;-59
2022/01/23 04:02:45;;;;;;;15.80;11.13;;;6.70;99.90;;;;;;5065426;28;20649;-58
2022/01/23 04:05:12;;;;;;;19.53;11.17;;;6.70;99.90;;;;;;5079001;28;20211;-57
2022/01/23 04:07:39;;;;;;;18.90;11.63;;;6.80;99.90;;;;;;5078658;28;20202;-59
2022/01/23 04:10:07;;;;;;;16.77;11.00;;;6.90;99.90;;;;;;5079486;28;20326;-58
2022/01/23 04:12:54;;;;;;;15.80;10.13;;;6.80;99.90;;;;;;5062236;28;22039;-57
2022/01/23 04:32:19;;;;;;;18.93;11.27;;;6.10;99.90;;;;;;5079458;28;20654;-56
2022/01/23 04:46:06;;;;;;;20.50;11.60;;;6.30;99.90;;;;;;5044632;28;20314;-58
2022/01/23 04:59:46;;;;;;;17.73;11.13;;;6.60;99.90;;;;;;5002193;28;20301;-58
2022/01/23 05:04:44;;;;;;;16.50;11.20;;;6.60;99.90;;;;;;5083666;28;20204;-58
2022/01/23 05:07:13;;;;;;;18.00;11.27;;;6.40;99.90;;;;;;5066835;28;20379;-59
2022/01/23 05:09:40;;;;;;;21.10;12.20;;;6.20;99.90;;;;;;5059245;28;20230;-56
2022/01/23 05:12:12;;;;;;;21.47;12.47;;;6.00;99.90;;;;;;5081229;28;20230;-58
2022/01/23 05:14:44;;;;;;;18.67;10.87;;;5.80;99.90;;;;;;5085524;28;20290;-57
2022/01/23 05:17:14;;;;;;;17.33;11.97;;;5.90;99.90;;;;;;5085444;28;20567;-58
2022/01/23 05:19:41;;;;;;;20.47;11.37;;;5.90;99.90;;;;;;5081671;28;20207;-58
2022/01/23 05:22:20;;;;;;;17.37;11.67;;;5.90;99.90;;;;;;5086234;28;20683;-58
2022/01/23 05:24:56;;;;;;;17.60;12.23;;;6.00;99.90;;;;;;5083266;28;20695;-57
2022/01/23 05:27:23;;;;;;;20.37;11.40;;;6.20;99.90;;;;;;5080361;28;20517;-58
2022/01/23 05:29:50;;;;;;;18.20;11.17;;;6.40;99.90;;;;;;5080218;28;20542;-58
2022/01/23 05:32:19;;;;;;;19.57;11.37;;;6.40;99.90;;;;;;5083707;28;20209;-58
2022/01/23 05:34:47;;;;;;;16.67;11.13;;;6.40;99.90;;;;;;5079691;28;20204;-58
2022/01/23 05:37:16;;;;;;;17.97;11.37;;;6.60;99.90;;;;;;5085350;28;20210;-58
2022/01/23 05:39:43;;;;;;;17.77;11.43;;;6.60;99.90;;;;;;5083320;28;20287;-58
2022/01/23 05:42:10;;;;;;;16.83;11.60;;;6.50;99.90;;;;;;5085326;28;20671;-58
2022/01/23 05:44:38;;;;;;;17.27;11.20;;;6.10;99.90;;;;;;5077840;28;20555;-58
2022/01/23 05:47:06;;;;;;;20.90;11.87;;;6.10;99.90;;;;;;5061089;28;20233;-58
2022/01/23 05:49:35;;;;;;;18.30;11.47;;;6.20;99.90;;;;;;5064515;28;20208;-58
2022/01/23 05:52:03;;;;;;;20.57;10.63;;;6.10;99.90;;;;;;5067012;28;20353;-58
2022/01/23 05:54:30;;;;;;;20.27;11.53;;;6.00;99.90;;;;;;5082021;28;20214;-58
2022/01/23 05:56:57;;;;;;;17.80;11.70;;;6.20;99.90;;;;;;5081782;28;20205;-58
2022/01/23 05:59:24;;;;;;;17.60;11.77;;;6.20;99.90;;;;;;5066819;28;20262;-58
2022/01/23 06:01:51;;;;;;;19.80;11.03;;;6.20;99.90;;;;;;5083402;28;20640;-58
2022/01/23 06:04:19;;;;;;;17.40;11.83;;;6.20;99.90;;;;;;5075036;28;20203;-58
2022/01/23 06:06:47;;;;;;;19.63;11.57;;;6.30;99.90;;;;;;5074174;28;20198;-58
2022/01/23 06:09:14;;;;;;;18.50;11.60;;;6.40;99.90;;;;;;5081651;28;20238;-58
2022/01/23 06:11:41;;;;;;;17.63;11.53;;;6.60;99.90;;;;;;5082655;28;20717;-58
2022/01/23 06:14:09;;;;;;;20.17;11.67;;;6.60;99.90;;;;;;5081790;28;20615;-58
2022/01/23 06:16:37;;;;;;;16.27;11.47;;;6.50;99.90;;;;;;5081727;28;20669;-58
2022/01/23 06:19:04;;;;;;;20.20;12.23;;;6.40;99.90;;;;;;5079382;28;20208;-58
2022/01/23 06:21:31;;;;;;;22.67;12.90;;;6.30;99.90;;;;;;5076328;28;20318;-58
2022/01/23 06:24:11;;;;;;;23.10;13.23;;;6.20;99.90;;;;;;5078106;28;20221;-58
2022/01/23 06:26:44;;;;;;;18.00;12.07;;;6.20;99.90;;;;;;5076968;28;20193;-59
2022/01/23 06:29:12;;;;;;;20.13;13.27;;;6.40;99.90;;;;;;5079271;28;20202;-58
2022/01/23 06:31:40;;;;;;;16.63;11.90;;;6.50;99.90;;;;;;5082577;28;20213;-57
2022/01/23 06:34:07;;;;;;;18.63;11.90;;;6.70;99.90;;;;;;5083704;28;20233;-58
2022/01/23 06:36:35;;;;;;;16.77;11.93;;;6.70;99.90;;;;;;5066514;28;20234;-57
2022/01/23 06:39:06;;;;;;;17.33;10.87;;;6.80;99.90;;;;;;5067785;28;20272;-58
2022/01/23 06:41:33;;;;;;;19.77;11.80;;;6.70;99.90;;;;;;5085655;28;20285;-59
2022/01/23 06:44:00;;;;;;;19.33;11.47;;;6.70;99.90;;;;;;5088108;28;20306;-59
2022/01/23 06:46:28;;;;;;;20.73;11.67;;;6.70;99.90;;;;;;5086710;28;20674;-59
2022/01/23 06:48:54;;;;;;;18.37;12.07;;;6.70;99.90;;;;;;5086640;28;20199;-58
2022/01/23 06:51:21;;;;;;;19.17;12.00;;;6.60;99.90;;;;;;5087027;28;20331;-58
2022/01/23 06:53:48;;;;;;;19.27;12.17;;;6.60;99.90;;;;;;5087174;28;20283;-58
2022/01/23 06:56:16;;;;;;;16.40;11.23;;;6.60;99.90;;;;;;5088026;28;20851;-58
2022/01/23 06:58:42;;;;;;;21.13;12.30;;;6.60;99.90;;;;;;5087954;28;20595;-58
2022/01/23 07:01:10;;;;;;;19.43;12.73;;;6.50;99.90;;;;;;5080936;28;20232;-58
2022/01/23 07:03:38;;;;;;;25.47;12.77;;;6.40;99.90;;;;;;5082787;28;20241;-62
2022/01/23 07:06:05;;;;;;;18.93;11.77;;;6.50;99.90;;;;;;5082431;28;20572;-57
2022/01/23 07:08:45;;;;;;;21.13;13.13;;;6.50;99.90;;;;;;5075601;28;20246;-58
2022/01/23 07:11:11;;;;;;;21.27;12.87;;;6.50;99.90;;;;;;5073734;28;20207;-58
2022/01/23 07:13:38;;;;;;;19.20;12.57;;;6.60;99.90;;;;;;5079903;28;20275;-57
2022/01/23 07:16:06;;;;;;;22.77;13.30;;;6.60;99.90;;;;;;5080384;28;20635;-57
2022/01/23 07:18:33;;;;;;;20.77;12.47;;;6.40;99.90;;;;;;5082792;28;20240;-58
2022/01/23 07:21:00;;;;;;;21.03;12.43;;;6.30;99.90;;;;;;5067925;28;20209;-58
2022/01/23 07:23:27;;;;;;;18.43;12.27;;;6.30;99.90;;;;;;5079426;28;20302;-59
2022/01/23 07:25:54;;;;;;;18.67;12.57;;;6.30;99.90;;;;;;5086174;28;20214;-58
2022/01/23 07:28:23;;;;;;;22.60;12.63;;;6.20;99.90;;;;;;5067441;28;20202;-59
2022/01/23 07:30:57;;;;;;;18.70;12.97;;;6.30;99.90;;;;;;5065378;28;20285;-58
2022/01/23 07:33:23;;;;;;;23.50;13.07;;;6.30;99.90;;;;;;5086559;28;20210;-58
2022/01/23 07:35:50;;;;;;;21.90;12.27;;;6.20;99.90;;;;;;5082047;28;20206;-59
2022/01/23 07:38:17;;;;;;;20.93;13.37;;;6.20;99.90;;;;;;5078693;28;20663;-59
2022/01/23 07:40:48;;;;;;;18.57;12.20;;;6.30;99.90;;;;;;5079174;28;20638;-59
2022/01/23 07:43:15;;;;;;;18.67;12.57;;;6.30;99.90;;;;;;5058069;28;20213;-57
2022/01/23 07:45:43;;;;;;;20.07;12.87;;;6.40;99.90;;;;;;5077043;28;20246;-58
2022/01/23 07:48:10;;;;;;;23.53;13.63;;;6.40;99.90;;;;;;5066235;28;20256;-58
2022/01/23 07:50:38;;;;;;;23.50;13.17;;;6.50;99.90;;;;;;5059660;28;20217;-58
2022/01/23 07:53:06;;;;;;;22.03;14.03;;;6.50;99.90;;;;;;5081898;28;20801;-58
2022/01/23 07:55:33;;;;;;;18.90;12.60;;;6.60;99.90;;;;;;5077092;28;20209;-58
2022/01/23 07:58:05;;;;;;;22.87;13.30;;;6.60;99.90;;;;;;5077394;28;20206;-58
2022/01/23 08:00:33;;;;;;;21.73;13.90;;;6.60;99.90;;;;;;5075035;28;20218;-58
2022/01/23 08:03:00;;;;;;;21.20;12.83;;;6.50;99.90;;;;;;5078437;28;20238;-59
2022/01/23 08:05:27;;;;;;;23.93;13.47;;;6.60;99.90;;;;;;5072846;28;20667;-58
2022/01/23 08:07:54;;;;;;;19.67;13.13;;;6.70;99.90;;;;;;5078007;28;20732;-58
2022/01/23 08:10:21;;;;;;;23.97;13.00;;;6.70;99.90;;;;;;5078334;28;20241;-57
2022/01/23 08:12:47;;;;;;;20.80;12.80;;;6.60;99.90;;;;;;5079365;28;20195;-58
2022/01/23 08:15:15;;;;;;;22.10;13.03;;;6.70;99.90;;;;;;5079185;28;20200;-58
2022/01/23 08:17:42;;;;;;;20.90;13.53;;;6.70;99.90;;;;;;5059256;28;20206;-58
2022/01/23 08:20:09;;;;;;;18.90;12.37;;;6.70;99.90;;;;;;5078117;28;20222;-59
2022/01/23 08:22:36;;;;;;;23.37;12.13;;;6.90;99.90;;;;;;5080941;28;20297;-59
2022/01/23 08:25:04;;;;;;;23.40;13.47;;;6.90;99.90;;;;;;5081757;28;20199;-58
2022/01/23 08:27:31;;;;;;;20.47;13.33;;;6.90;99.90;;;;;;5082111;28;20700;-58
2022/01/23 08:29:59;;;;;;;19.83;12.80;;;6.90;99.90;;;;;;5076134;28;20206;-59
2022/01/23 08:32:26;;;;;;;25.57;13.83;;;6.90;99.90;;;;;;5075191;28;20283;-57
2022/01/23 08:34:53;;;;;;;23.97;13.77;;;6.90;99.90;;;;;;5075877;28;20206;-58
2022/01/23 08:37:20;;;;;;;24.27;14.47;;;6.90;99.90;;;;;;5054880;28;20690;-57
2022/01/23 08:39:47;;;;;;;20.43;14.50;;;6.80;99.90;;;;;;5075186;28;20217;-58
2022/01/23 08:42:17;;;;;;;22.73;14.10;;;6.90;99.90;;;;;;5071040;28;20215;-60
2022/01/23 08:44:46;;;;;;;20.57;13.97;;;6.90;99.90;;;;;;5074101;28;21048;-58
2022/01/23 08:47:14;;;;;;;24.13;13.23;;;6.90;99.90;;;;;;5070612;28;20625;-59
2022/01/23 08:49:46;;;;;;;20.13;13.07;;;6.80;99.90;;;;;;5066666;28;20209;-57
2022/01/23 08:52:17;;;;;;;21.27;13.37;;;6.70;99.90;;;;;;5055440;28;20227;-59
2022/01/23 08:54:51;;;;;;;21.80;13.50;;;6.70;99.90;;;;;;5081323;28;20199;-57
2022/01/23 08:57:19;;;;;;;28.47;14.40;;;6.60;99.90;;;;;;5076981;28;20193;-58
2022/01/23 08:59:46;;;;;;;22.93;15.50;;;6.50;99.90;;;;;;5075335;28;20251;-59
2022/01/23 09:02:13;;;;;;;24.53;14.70;;;6.40;99.90;;;;;;5076230;28;20210;-59
2022/01/23 09:04:40;;;;;;;22.27;14.33;;;6.50;99.90;;;;;;5078147;28;20202;-58
2022/01/23 09:07:07;;;;;;;25.13;14.17;;;6.60;99.90;;;;;;5068697;28;20204;-58
2022/01/23 09:09:38;;;;;;;19.97;13.47;;;6.50;99.90;;;;;;5083452;28;20274;-58
2022/01/23 09:12:41;;;;;;;26.60;14.10;;;6.60;99.90;;;;;;5060919;28;20297;-58
2022/01/23 09:14:56;;;;;;;24.63;14.83;;;6.60;99.90;;;;;;5077652;28;20212;-58
2022/01/23 09:17:23;;;;;;;22.47;13.87;;;6.60;99.90;;;;;;5083458;28;20195;-59
2022/01/23 09:19:50;;;;;;;26.53;14.97;;;6.70;99.90;;;;;;5071966;28;20854;-57
2022/01/23 09:22:17;;;;;;;21.53;14.10;;;6.80;99.90;;;;;;5074791;28;20256;-58
2022/01/23 09:24:45;;;;;;;21.70;13.87;;;6.60;99.90;;;;;;5056227;28;20252;-59
2022/01/23 09:27:18;;;;;;;28.67;16.20;;;6.70;99.90;;;;;;5077561;28;20299;-59
2022/01/23 09:29:50;;;;;;;25.70;15.30;;;6.60;99.90;;;;;;5064172;28;20206;-58
2022/01/23 09:32:19;;;;;;;26.07;14.63;;;6.60;99.90;;;;;;5077674;28;20715;-58
2022/01/23 09:34:48;;;;;;;25.87;14.67;;;6.70;99.90;;;;;;5070956;28;20196;-56
2022/01/23 09:37:16;;;;;;;25.77;15.80;;;6.80;99.90;;;;;;5073901;28;20658;-57
2022/01/23 09:39:46;;;;;;;26.60;15.37;;;6.80;99.90;;;;;;5054133;28;20202;-58
2022/01/23 09:42:17;;;;;;;24.47;15.40;;;6.80;99.90;;;;;;5067154;28;20209;-57
2022/01/23 09:44:51;;;;;;;25.17;14.40;;;6.70;99.90;;;;;;5058487;28;20615;-58
2022/01/23 09:47:19;;;;;;;28.67;14.93;;;6.80;99.90;;;;;;5077803;28;20206;-57
2022/01/23 09:49:48;;;;;;;23.27;14.90;;;6.80;99.90;;;;;;5080366;28;20237;-59
2022/01/23 09:52:17;;;;;;;23.70;15.13;;;6.80;99.90;;;;;;5077734;28;20295;-58
2022/01/23 09:54:52;;;;;;;21.80;13.77;;;6.90;99.90;;;;;;5062061;28;20202;-58
2022/01/23 09:57:23;;;;;;;22.63;14.87;;;6.90;99.90;;;;;;5074021;28;20202;-58
2022/01/23 09:59:54;;;;;;;24.63;15.23;;;7.00;99.90;;;;;;5069455;28;20198;-58
2022/01/23 10:02:23;;;;;;;25.13;14.83;;;6.90;99.90;;;;;;5079137;28;20201;-58
2022/01/23 10:04:54;;;;;;;25.97;15.00;;;7.00;99.90;;;;;;5073230;28;20270;-57
2022/01/23 10:07:22;;;;;;;26.13;14.93;;;7.10;99.90;;;;;;5074027;28;20748;-58
2022/01/23 10:09:54;;;;;;;23.37;14.67;;;7.10;99.90;;;;;;5078648;28;20228;-59
2022/01/23 10:12:26;;;;;;;27.47;15.17;;;7.20;99.90;;;;;;5070854;28;20300;-59
2022/01/23 10:14:54;;;;;;;26.70;14.90;;;7.10;99.90;;;;;;5076305;28;20602;-58
2022/01/23 10:17:21;;;;;;;22.97;15.30;;;7.00;99.90;;;;;;5078985;28;20220;-58
2022/01/23 10:19:48;;;;;;;22.57;14.53;;;7.10;99.90;;;;;;5081147;28;20294;-57
2022/01/23 10:22:15;;;;;;;22.10;14.33;;;7.10;99.90;;;;;;5077316;28;20561;-58
2022/01/23 10:24:42;;;;;;;26.37;15.83;;;7.10;99.90;;;;;;5057921;28;20265;-58
2022/01/23 10:27:09;;;;;;;25.13;15.20;;;7.10;99.90;;;;;;5058641;28;20244;-57
2022/01/23 10:29:37;;;;;;;26.90;17.03;;;7.10;99.90;;;;;;5077294;28;20201;-58
2022/01/23 10:32:20;;;;;;;28.50;16.00;;;7.00;99.90;;;;;;5077037;28;20226;-58
2022/01/23 10:34:52;;;;;;;23.90;15.10;;;7.10;99.90;;;;;;5057332;28;20301;-57
2022/01/23 10:37:32;;;;;;;26.63;15.00;;;7.10;99.90;;;;;;5057902;28;20620;-58
2022/01/23 10:40:10;;;;;;;26.23;14.10;;;7.30;99.90;;;;;;5074386;28;20207;-58
2022/01/23 10:50:51;;;;;;;24.60;14.27;;;7.40;99.90;;;;;;5068464;28;20210;-58
2022/01/23 10:53:18;;;;;;;25.17;14.90;;;7.40;99.90;;;;;;5071040;28;20204;-58
2022/01/23 10:55:45;;;;;;;23.20;14.27;;;7.50;99.90;;;;;;5072183;28;20297;-58
2022/01/23 10:58:24;;;;;;;25.37;15.33;;;7.60;99.90;;;;;;5065114;28;20214;-58
2022/01/23 11:00:51;;;;;;;23.87;15.77;;;7.70;99.90;;;;;;5068024;28;20245;-58
2022/01/23 11:03:23;;;;;;;24.27;15.53;;;7.70;99.90;;;;;;5065262;28;20196;-59
2022/01/23 11:05:52;;;;;;;26.83;15.80;;;7.60;99.90;;;;;;5044923;28;20807;-57
2022/01/23 11:08:30;;;;;;;24.47;16.00;;;7.80;99.90;;;;;;5075365;28;20591;-58
2022/01/23 11:10:59;;;;;;;25.23;15.80;;;7.90;99.90;;;;;;5075490;28;20304;-57
2022/01/23 11:19:39;;;;;;;25.93;14.97;;;7.50;99.90;;;;;;5069203;28;20924;-58
2022/01/23 11:22:28;;;;;;;21.93;15.47;;;7.60;99.90;;;;;;5072401;28;20670;-58
2022/01/23 11:25:08;;;;;;;25.33;15.97;;;7.70;99.90;;;;;;5055160;28;20278;-58
2022/01/23 11:27:39;;;;;;;28.73;16.13;;;7.80;99.90;;;;;;5073380;28;20630;-57
2022/01/23 11:30:13;;;;;;;24.87;15.53;;;7.80;99.90;;;;;;5075797;28;20681;-58
2022/01/23 11:32:41;;;;;;;29.87;15.47;;;7.70;99.90;;;;;;5077363;28;20309;-55
2022/01/23 11:35:13;;;;;;;25.30;15.70;;;7.70;99.90;;;;;;5067554;28;20642;-59
2022/01/23 11:37:48;;;;;;;23.37;15.17;;;7.50;99.90;;;;;;5067602;28;20615;-59
2022/01/23 11:40:41;;;;;;;27.83;16.03;;;7.50;99.90;;;;;;5073259;28;20875;-60
2022/01/23 11:54:39;;;;;;;27.33;15.03;;;8.00;99.90;;;;;;5075167;28;20203;-59
2022/01/23 11:57:35;;;;;;;29.03;17.23;;;8.10;99.90;;;;;;5052370;28;21638;-58
2022/01/23 12:00:20;;;;;;;24.93;15.63;;;8.10;99.90;;;;;;5077832;28;20678;-57
2022/01/23 12:03:27;;;;;;;28.07;15.77;;;8.10;99.90;;;;;;5076865;28;20595;-56
2022/01/23 12:06:11;;;;;;;23.03;14.67;;;8.10;99.90;;;;;;4981472;28;20730;-58
2022/01/23 12:08:38;;;;;;;23.50;15.07;;;8.10;99.90;;;;;;4989016;28;20798;-58
2022/01/23 12:17:15;;;;;;;22.67;14.90;;;8.20;99.90;;;;;;4984934;28;20677;-58
2022/01/23 12:19:48;;;;;;;24.93;15.27;;;8.20;99.90;;;;;;4985321;28;20711;-58
2022/01/23 12:22:22;;;;;;;26.57;16.50;;;8.20;99.90;;;;;;4983172;28;20380;-58
2022/01/23 12:24:50;;;;;;;23.67;13.87;;;8.20;99.90;;;;;;4990972;28;20282;-57
2022/01/23 12:27:23;;;;;;;23.37;14.97;;;8.20;99.90;;;;;;4974784;28;20680;-58
2022/01/23 12:29:51;;;;;;;25.70;15.60;;;8.20;99.90;;;;;;4989159;28;20209;-59
2022/01/23 12:32:26;;;;;;;20.50;13.77;;;8.30;99.90;;;;;;4991677;28;20739;-58
2022/01/23 12:34:56;;;;;;;23.57;15.03;;;8.20;99.90;;;;;;4984482;28;20334;-59
2022/01/23 12:37:24;;;;;;;29.20;15.77;;;8.20;99.90;;;;;;5055751;28;20750;-59
2022/01/23 12:40:22;;;;;;;26.43;15.50;;;8.20;99.90;;;;;;5074811;28;21340;-59
2022/01/23 12:43:19;;;;;;;27.90;15.83;;;8.20;99.90;;;;;;5052766;28;20756;-59
2022/01/23 12:45:53;;;;;;;22.83;14.60;;;8.10;99.90;;;;;;5069615;28;20652;-58
2022/01/23 12:48:38;;;;;;;23.30;14.53;;;8.00;99.90;;;;;;5077704;28;20212;-59
2022/01/23 12:51:30;;;;;;;26.50;15.30;;;8.00;99.90;;;;;;5068989;28;20337;-59
2022/01/23 12:53:57;;;;;;;32.30;16.03;;;8.10;99.90;;;;;;5063293;28;20355;-57
2022/01/23 12:56:32;;;;;;;26.20;15.10;;;8.10;99.90;;;;;;5070196;28;20717;-59
2022/01/23 12:59:11;;;;;;;25.57;14.53;;;8.10;99.90;;;;;;5068620;28;20239;-59
2022/01/23 13:01:42;;;;;;;23.07;14.63;;;8.10;99.90;;;;;;5077304;28;20314;-59
2022/01/23 13:04:10;;;;;;;25.37;16.60;;;7.90;99.90;;;;;;5074582;28;20198;-57
2022/01/23 13:06:50;;;;;;;26.40;14.20;;;8.00;99.90;;;;;;5050987;28;20707;-58
2022/01/23 13:12:13;;;;;;;21.37;13.83;;;7.80;99.90;;;;;;5074530;28;20251;-58
2022/01/23 13:14:46;;;;;;;27.10;15.20;;;7.80;99.90;;;;;;5075812;28;20634;-58
2022/01/23 13:29:10;;;;;;;27.27;15.40;;;8.00;99.90;;;;;;5071451;28;20661;-59
2022/01/23 13:31:10;;;;;;;26.43;15.77;;;8.00;99.90;;;;;;5078430;28;20286;-58
2022/01/23 13:33:39;;;;;;;26.20;15.67;;;8.00;99.90;;;;;;5070169;28;20203;-58
2022/01/23 13:36:10;;;;;;;26.20;14.50;;;8.10;99.90;;;;;;5066489;28;20831;-55
2022/01/23 13:38:39;;;;;;;28.53;15.73;;;8.20;99.90;;;;;;5071480;28;20281;-60
2022/01/23 13:41:22;;;;;;;28.10;14.90;;;8.30;99.90;;;;;;5052813;28;20246;-59
2022/01/23 13:50:50;;;;;;;24.43;14.00;;;8.30;99.90;;;;;;5067750;28;20309;-60
2022/01/23 13:52:36;;;;;;;26.87;14.50;;;8.20;99.90;;;;;;5072420;28;20246;-59
2022/01/23 13:58:16;;;;;;;23.33;14.20;;;8.30;99.90;;;;;;5081083;28;20558;-60
2022/01/23 14:00:36;;;;;;;23.07;13.67;;;8.30;99.90;;;;;;5085237;28;20324;-59
2022/01/23 14:03:03;;;;;;;24.47;13.87;;;8.40;99.90;;;;;;5087249;28;20263;-60
2022/01/23 14:05:33;;;;;;;21.43;13.43;;;8.40;99.90;;;;;;5081493;28;20214;-59
2022/01/23 14:08:02;;;;;;;26.50;15.23;;;8.40;99.90;;;;;;5083601;28;20281;-60
2022/01/23 14:10:31;;;;;;;22.13;14.60;;;8.30;99.90;;;;;;5066135;28;20245;-57
2022/01/23 14:13:11;;;;;;;27.63;14.07;;;8.30;99.90;;;;;;5094013;28;20225;-59
2022/01/23 14:15:49;;;;;;;24.57;13.50;;;8.30;99.90;;;;;;5083622;28;20196;-58
2022/01/23 14:18:26;;;;;;;20.63;13.30;;;8.40;99.90;;;;;;5084384;28;20641;-60
2022/01/23 14:21:00;;;;;;;19.80;12.00;;;8.40;99.90;;;;;;5084715;28;20208;-58
2022/01/23 14:23:27;;;;;;;20.37;12.30;;;8.40;99.90;;;;;;5083006;28;20203;-58
2022/01/23 14:26:00;;;;;;;20.97;12.10;;;8.30;99.90;;;;;;5089661;28;20263;-58
2022/01/23 14:28:36;;;;;;;19.53;12.23;;;8.20;99.90;;;;;;5081865;28;20342;-57
2022/01/23 14:31:17;;;;;;;20.17;11.90;;;8.10;99.90;;;;;;5091610;28;20656;-60
2022/01/23 14:33:48;;;;;;;19.10;12.20;;;8.20;99.90;;;;;;5079469;28;20594;-58
2022/01/23 14:36:35;;;;;;;17.57;11.57;;;8.10;99.90;;;;;;5080209;28;20202;-59
2022/01/23 14:39:05;;;;;;;23.77;13.10;;;8.10;99.90;;;;;;5078438;28;20230;-60
2022/01/23 14:41:38;;;;;;;21.63;11.90;;;8.00;99.90;;;;;;5084027;28;20214;-60
2022/01/23 14:44:16;;;;;;;19.67;12.07;;;8.20;99.90;;;;;;5084099;28;20216;-58
2022/01/23 14:46:52;;;;;;;19.47;12.00;;;8.20;99.90;;;;;;5083463;28;20211;-59
2022/01/23 14:49:26;;;;;;;19.53;10.97;;;8.30;99.90;;;;;;5078553;28;22176;-58
2022/01/23 14:51:55;;;;;;;20.60;12.23;;;8.30;99.90;;;;;;5087230;28;20249;-60
2022/01/23 14:54:24;;;;;;;19.50;12.27;;;8.30;99.90;;;;;;5077313;28;20280;-60
2022/01/23 14:56:51;;;;;;;21.50;12.87;;;8.30;99.90;;;;;;5069886;28;21864;-60
2022/01/23 14:59:19;;;;;;;21.27;12.03;;;8.30;99.90;;;;;;5074206;28;20581;-60
2022/01/23 15:01:46;;;;;;;21.00;11.77;;;8.20;99.90;;;;;;5075239;28;20255;-56
2022/01/23 15:04:15;;;;;;;20.90;12.13;;;8.30;99.90;;;;;;5070293;28;20726;-61
2022/01/23 15:06:47;;;;;;;20.93;12.40;;;8.30;99.90;;;;;;5067479;28;20625;-61
2022/01/23 15:09:17;;;;;;;24.67;13.87;;;8.40;99.90;;;;;;5079112;28;20229;-59
2022/01/23 15:11:45;;;;;;;24.97;15.23;;;8.30;99.90;;;;;;5064125;28;20231;-59
2022/01/23 15:14:12;;;;;;;23.13;13.97;;;8.30;99.90;;;;;;5051820;28;21368;-60
2022/01/23 15:16:40;;;;;;;28.43;14.93;;;8.40;99.90;;;;;;5074744;28;20239;-60
2022/01/23 15:19:09;;;;;;;23.23;13.70;;;8.40;99.90;;;;;;5052893;28;20297;-60
2022/01/23 15:21:36;;;;;;;23.57;14.57;;;8.40;99.90;;;;;;5071482;28;20212;-59
2022/01/23 15:24:03;;;;;;;20.93;13.23;;;8.40;99.90;;;;;;5066990;28;20681;-59
2022/01/23 15:26:33;;;;;;;20.77;13.97;;;8.40;99.90;;;;;;5071212;28;20300;-57
2022/01/23 15:29:00;;;;;;;22.43;14.47;;;8.40;99.90;;;;;;5078827;28;20334;-60
2022/01/23 15:31:27;;;;;;;26.40;14.07;;;8.30;99.90;;;;;;5076650;28;20286;-60
2022/01/23 15:33:54;;;;;;;23.27;14.07;;;8.30;99.90;;;;;;5079509;28;20202;-60
2022/01/23 15:36:21;;;;;;;22.63;14.80;;;8.30;99.90;;;;;;5075955;28;21009;-60
2022/01/23 15:38:48;;;;;;;22.60;14.77;;;8.20;99.90;;;;;;5078152;28;20198;-60
2022/01/23 15:41:15;;;;;;;22.40;13.80;;;8.20;99.90;;;;;;5075836;28;20239;-59
2022/01/23 15:43:42;;;;;;;23.97;14.17;;;8.20;99.90;;;;;;5079902;28;20206;-58
2022/01/23 15:46:09;;;;;;;21.03;14.37;;;8.30;99.90;;;;;;5060984;28;20199;-60
2022/01/23 15:48:36;;;;;;;23.87;14.97;;;8.20;99.90;;;;;;5074225;28;20207;-58
2022/01/23 15:51:04;;;;;;;24.07;13.70;;;8.20;99.90;;;;;;5070343;28;20290;-59
2022/01/23 15:53:31;;;;;;;21.83;14.70;;;8.20;99.90;;;;;;5072750;28;21076;-59
2022/01/23 15:55:58;;;;;;;24.10;14.30;;;8.20;99.90;;;;;;5053125;28;20303;-59
2022/01/23 15:58:28;;;;;;;20.20;13.87;;;8.20;99.90;;;;;;5078678;28;20212;-58
2022/01/23 16:00:56;;;;;;;26.27;15.23;;;8.20;99.90;;;;;;5068270;28;20232;-58
2022/01/23 16:03:26;;;;;;;22.20;14.53;;;8.20;99.90;;;;;;5079009;28;20222;-59
2022/01/23 16:05:54;;;;;;;21.87;14.77;;;8.20;99.90;;;;;;5068901;28;20713;-60
2022/01/23 16:08:21;;;;;;;22.13;14.77;;;8.20;99.90;;;;;;5056102;28;21039;-58
2022/01/23 16:10:48;;;;;;;24.63;16.07;;;8.10;99.90;;;;;;5076866;28;20204;-58
2022/01/23 16:13:15;;;;;;;26.97;15.50;;;8.10;99.90;;;;;;5075007;28;20207;-60
2022/01/23 16:15:43;;;;;;;26.57;14.37;;;8.10;99.90;;;;;;5070069;28;20677;-59